Newburg Corners, Wisconsin
Current Conditions -  °F | °C
As of 2:53 PM on Thursday 23 Oct 2014 (Local Time) from KLSE Reporting Station
Overcast Overcast  
Wind Chill: 50°   Ceiling: 600
Heat Index: 50°   Visibility: 7mi
Dew Point: 47°   Wind: 7mph
Humidity: 89%   Direction: 180°S
Pressure: 30.03"   Gusts: NA
Location:  43.8385°N, 90.9811°W
Report Text: KLSE 231953Z 18006KT 7SM OVC006 10/08 A3003 RMK AO2 SLP170 T01000083
Loading
Personal Weather Stations






























Interactive Weather Map New forecast layout! Learn more

10-Day Weather Forecast

Advertisements
Track Severe Weather on mobile